createdAt,value
2022-09-20T00:01:59.958Z,1.67
2022-09-20T00:05:12.033Z,1.63
2022-09-20T00:08:25.395Z,1.10
2022-09-20T00:11:37.188Z,1.50
2022-09-20T00:14:45.712Z,1.17
2022-09-20T00:17:54.025Z,1.10
2022-09-20T00:21:03.204Z,1.53
2022-09-20T00:24:13.832Z,1.43
2022-09-20T00:27:25.144Z,1.50
2022-09-20T00:30:34.622Z,1.20
2022-09-20T00:33:57.335Z,1.00
2022-09-20T00:37:04.168Z,1.20
2022-09-20T00:40:17.100Z,1.20
2022-09-20T00:43:38.715Z,1.57
2022-09-20T00:46:48.492Z,1.40
2022-09-20T00:50:02.272Z,1.30
2022-09-20T00:53:14.200Z,1.10
2022-09-20T00:56:25.933Z,1.10
2022-09-20T00:59:36.208Z,1.23
2022-09-20T01:02:47.135Z,1.07
2022-09-20T01:05:55.457Z,1.40
2022-09-20T01:09:05.407Z,1.30
2022-09-20T01:12:19.418Z,1.10
2022-09-20T01:15:28.987Z,1.40
2022-09-20T01:18:36.448Z,1.00
2022-09-20T01:21:43.306Z,1.43
2022-09-20T01:24:59.402Z,1.50
2022-09-20T01:28:08.140Z,1.00
2022-09-20T01:31:19.183Z,1.30
2022-09-20T01:34:31.309Z,1.40
2022-09-20T01:37:49.353Z,0.83
2022-09-20T01:41:04.870Z,0.97
2022-09-20T01:44:23.695Z,1.23
2022-09-20T01:47:36.212Z,1.60
2022-09-20T01:50:56.949Z,1.27
2022-09-20T01:54:37.221Z,1.30
2022-09-20T01:58:17.959Z,1.70
2022-09-20T02:02:10.407Z,1.10
2022-09-20T02:05:41.108Z,1.10
2022-09-20T02:09:14.074Z,1.20
2022-09-20T02:12:50.925Z,1.23
2022-09-20T02:16:27.512Z,1.20
2022-09-20T02:20:04.692Z,1.20
2022-09-20T02:23:30.093Z,1.53
2022-09-20T02:26:42.108Z,1.00
2022-09-20T02:29:57.808Z,1.10
2022-09-20T02:33:13.629Z,1.00
2022-09-20T02:36:28.121Z,1.00
2022-09-20T02:39:37.384Z,1.00
2022-09-20T02:42:46.056Z,1.40
2022-09-20T02:45:59.909Z,1.77
2022-09-20T02:49:08.914Z,1.80
2022-09-20T02:52:21.766Z,1.67
2022-09-20T02:55:36.785Z,1.63
2022-09-20T02:58:53.105Z,1.60
2022-09-20T03:02:07.334Z,1.40
2022-09-20T03:05:18.290Z,1.13
2022-09-20T03:08:32.876Z,1.40
2022-09-20T03:11:47.254Z,1.00
2022-09-20T03:15:01.356Z,1.27
2022-09-20T03:18:11.196Z,1.23
2022-09-20T03:21:28.928Z,1.00
2022-09-20T03:24:43.146Z,0.90
2022-09-20T03:27:55.952Z,1.00
2022-09-20T03:31:06.794Z,1.00
2022-09-20T03:34:22.053Z,0.87
2022-09-20T03:37:40.842Z,1.03
2022-09-20T03:41:16.243Z,1.13
2022-09-20T03:44:42.413Z,0.90
2022-09-20T03:48:15.001Z,1.20
2022-09-20T03:51:33.589Z,1.10
2022-09-20T03:55:20.861Z,1.00
2022-09-20T03:58:35.424Z,1.07
2022-09-20T04:01:54.836Z,0.90
2022-09-20T04:05:01.954Z,1.00
2022-09-20T04:08:19.002Z,1.43
2022-09-20T04:11:30.384Z,1.10
2022-09-20T04:14:39.165Z,1.10
2022-09-20T04:17:50.122Z,1.47
2022-09-20T04:21:01.639Z,1.20
2022-09-20T04:24:12.589Z,1.00
2022-09-20T04:27:21.450Z,1.20
2022-09-20T04:30:27.719Z,1.23
2022-09-20T04:33:35.832Z,1.37
2022-09-20T04:36:57.648Z,1.13
2022-09-20T04:40:10.898Z,1.40
2022-09-20T04:43:51.171Z,1.27
2022-09-20T04:47:18.458Z,1.83
2022-09-20T04:50:56.918Z,1.40
2022-09-20T04:54:25.866Z,1.30
2022-09-20T04:57:53.898Z,1.30
2022-09-20T05:01:32.256Z,1.50
2022-09-20T05:05:14.370Z,1.40
2022-09-20T05:08:58.818Z,1.17
2022-09-20T05:12:37.953Z,1.57
2022-09-20T05:15:44.327Z,1.50
2022-09-20T05:19:14.232Z,1.30
2022-09-20T05:22:37.380Z,1.97
2022-09-20T05:25:52.705Z,1.50
2022-09-20T05:29:02.404Z,1.23
2022-09-20T05:32:13.890Z,1.40
2022-09-20T05:35:23.850Z,1.80
2022-09-20T05:38:34.198Z,1.50
2022-09-20T05:41:46.760Z,1.60
2022-09-20T05:44:58.783Z,1.70
2022-09-20T05:48:12.884Z,1.60
2022-09-20T05:51:28.825Z,1.57
2022-09-20T05:54:48.522Z,1.50
2022-09-20T05:58:06.673Z,1.93
2022-09-20T06:01:15.950Z,1.67
2022-09-20T06:04:24.745Z,1.80
2022-09-20T06:07:39.872Z,1.37
2022-09-20T06:11:01.516Z,1.67
2022-09-20T06:14:23.464Z,1.57
2022-09-20T06:17:29.525Z,1.70
2022-09-20T06:20:38.285Z,1.67
2022-09-20T06:23:41.398Z,1.30
2022-09-20T06:26:45.378Z,1.40
2022-09-20T06:29:54.122Z,1.30
2022-09-20T06:32:59.158Z,1.27
2022-09-20T06:36:21.829Z,1.00
2022-09-20T06:39:51.402Z,1.23
2022-09-20T06:42:54.901Z,1.95
2022-09-20T06:45:58.952Z,1.17
2022-09-20T06:49:02.112Z,1.20
2022-09-20T06:52:06.457Z,1.58
2022-09-20T06:55:18.332Z,1.17
2022-09-20T06:58:20.987Z,0.90
2022-09-20T07:01:30.102Z,0.85
2022-09-20T07:04:34.169Z,1.00
2022-09-20T07:07:36.800Z,0.90
2022-09-20T07:10:39.822Z,1.55
2022-09-20T07:13:42.852Z,0.98
2022-09-20T07:16:46.881Z,1.05
2022-09-20T07:19:52.106Z,1.08
2022-09-20T07:22:56.634Z,1.10
2022-09-20T07:26:01.916Z,1.15
2022-09-20T07:29:08.356Z,1.08
2022-09-20T07:32:15.624Z,1.00
2022-09-20T07:35:20.643Z,1.02
2022-09-20T07:38:25.789Z,1.48
2022-09-20T07:41:32.161Z,1.08
2022-09-20T07:44:37.177Z,1.92
2022-09-20T07:47:47.084Z,1.52
2022-09-20T07:50:55.690Z,1.50
2022-09-20T07:54:00.449Z,1.30
2022-09-20T07:57:05.998Z,1.25
2022-09-20T08:00:13.495Z,1.40
2022-09-20T08:03:19.896Z,1.30
2022-09-20T08:06:25.047Z,1.67
2022-09-20T08:09:30.212Z,1.55
2022-09-20T08:16:04.201Z,1.80
2022-09-20T08:19:13.163Z,1.60
2022-09-20T08:22:20.703Z,1.40
2022-09-20T08:25:25.707Z,1.40
2022-09-20T08:28:30.771Z,2.22
2022-09-20T08:31:38.758Z,1.30
2022-09-20T08:34:49.343Z,1.50
2022-09-20T08:39:57.286Z,1.20
2022-09-20T08:41:29.137Z,1.48
2022-09-20T08:44:38.532Z,1.23
2022-09-20T08:47:58.366Z,1.08
2022-09-20T08:51:06.683Z,0.90
2022-09-20T08:54:16.638Z,1.15
2022-09-20T08:57:23.202Z,1.55
2022-09-20T09:00:31.100Z,1.17
2022-09-20T09:03:36.574Z,0.77
2022-09-20T09:06:44.756Z,1.20
2022-09-20T09:09:51.719Z,1.35
2022-09-20T09:12:58.371Z,1.17
2022-09-20T09:16:07.331Z,1.05
2022-09-20T09:19:33.335Z,1.10
2022-09-20T09:22:43.105Z,0.80
2022-09-20T09:25:45.845Z,0.80
2022-09-20T09:29:03.720Z,0.90
2022-09-20T09:32:22.052Z,1.13
2022-09-20T09:35:30.359Z,1.10
2022-09-20T09:38:36.767Z,0.90
2022-09-20T09:41:39.373Z,0.68
2022-09-20T09:44:41.989Z,0.82
2022-09-20T09:47:45.942Z,0.70
2022-09-20T09:50:48.956Z,0.90
2022-09-20T09:53:55.047Z,0.70
2022-09-20T09:57:10.928Z,1.23
2022-09-20T10:00:21.895Z,0.60
2022-09-20T10:03:33.518Z,0.80
2022-09-20T10:06:49.395Z,1.00
2022-09-20T10:10:08.980Z,0.65
2022-09-20T10:13:21.625Z,0.60
2022-09-20T10:16:34.381Z,0.75
2022-09-20T10:19:57.288Z,0.70
2022-09-20T10:26:49.324Z,0.73
2022-09-20T10:30:09.821Z,0.75
2022-09-20T10:33:25.220Z,0.50
2022-09-20T10:36:33.070Z,0.80
2022-09-20T10:39:37.842Z,1.10
2022-09-20T10:43:05.225Z,0.88
2022-09-20T10:46:33.666Z,0.95
2022-09-20T10:49:43.050Z,0.85
2022-09-20T10:52:59.971Z,0.80
2022-09-20T10:56:17.875Z,0.60
2022-09-20T10:59:33.915Z,1.00
2022-09-20T11:02:47.243Z,0.70
2022-09-20T11:06:00.637Z,1.08
2022-09-20T11:09:05.709Z,0.70
2022-09-20T11:12:16.237Z,0.47
2022-09-20T11:15:24.726Z,1.00
2022-09-20T11:18:35.685Z,0.70
2022-09-20T11:21:43.057Z,0.85
2022-09-20T11:24:51.344Z,0.85
2022-09-20T11:27:58.169Z,0.98
2022-09-20T11:31:08.288Z,1.02
2022-09-20T11:34:18.466Z,0.60
2022-09-20T11:37:24.022Z,0.73
2022-09-20T11:40:32.752Z,0.93
2022-09-20T11:43:36.685Z,0.70
2022-09-20T11:46:47.785Z,0.77
2022-09-20T11:50:17.627Z,0.52
2022-09-20T11:53:37.444Z,0.90
2022-09-20T11:56:40.357Z,0.60
2022-09-20T11:59:44.685Z,0.80
2022-09-20T12:02:51.999Z,0.73
2022-09-20T12:06:00.734Z,0.73
2022-09-20T12:09:06.697Z,1.00
2022-09-20T12:12:21.286Z,1.00
2022-09-20T12:15:26.273Z,1.00
2022-09-20T12:18:46.727Z,0.80
2022-09-20T12:22:19.092Z,0.98
2022-09-20T12:25:39.925Z,0.65
2022-09-20T12:28:44.735Z,0.70
2022-09-20T12:31:49.451Z,0.63
2022-09-20T12:34:53.492Z,0.57
2022-09-20T12:37:56.565Z,0.70
2022-09-20T12:41:01.461Z,0.90
2022-09-20T12:44:21.824Z,0.70
2022-09-20T12:47:27.908Z,0.63
2022-09-20T12:50:52.577Z,0.70
2022-09-20T12:54:08.581Z,0.85
2022-09-20T12:57:19.307Z,0.52
2022-09-20T13:00:34.057Z,0.50
2022-09-20T13:03:38.468Z,0.43
2022-09-20T13:06:42.589Z,0.40
2022-09-20T13:09:45.639Z,0.60
2022-09-20T13:12:52.622Z,0.70
2022-09-20T13:15:59.181Z,0.50
2022-09-20T13:19:07.225Z,0.63
2022-09-20T13:22:18.801Z,0.57
2022-09-20T13:25:24.633Z,0.68
2022-09-20T13:28:37.036Z,0.85
2022-09-20T13:31:42.067Z,0.80
2022-09-20T13:34:49.994Z,0.80
2022-09-20T13:37:59.737Z,0.80
2022-09-20T13:41:10.241Z,0.63
2022-09-20T13:44:19.105Z,0.60
2022-09-20T13:47:26.313Z,1.10
2022-09-20T13:50:34.294Z,0.68
2022-09-20T13:53:42.272Z,0.60
2022-09-20T13:56:47.694Z,0.70
2022-09-20T13:59:54.624Z,0.60
2022-09-20T14:03:00.979Z,0.80
2022-09-20T14:06:12.617Z,0.60
2022-09-20T14:09:26.537Z,0.75
2022-09-20T14:12:34.762Z,0.60
2022-09-20T14:15:43.315Z,0.90
2022-09-20T14:18:50.803Z,0.77
2022-09-20T14:21:55.880Z,1.23
2022-09-20T14:25:04.557Z,1.00
2022-09-20T14:28:19.407Z,0.65
2022-09-20T14:31:27.587Z,0.93
2022-09-20T14:34:32.883Z,1.00
2022-09-20T14:37:45.024Z,0.90
2022-09-20T14:40:52.137Z,0.95
2022-09-20T14:43:59.569Z,1.13
2022-09-20T14:47:16.816Z,1.20
2022-09-20T14:50:30.691Z,1.08
2022-09-20T14:53:38.571Z,0.88
2022-09-20T14:56:53.338Z,0.80
2022-09-20T14:59:59.670Z,0.80
2022-09-20T15:03:12.705Z,0.60
2022-09-20T15:06:17.658Z,0.63
2022-09-20T15:09:23.671Z,0.32
2022-09-20T15:12:29.965Z,0.50
2022-09-20T15:15:35.007Z,0.80
2022-09-20T15:18:42.898Z,0.68
2022-09-20T15:21:48.166Z,0.50
2022-09-20T15:24:52.967Z,0.52
2022-09-20T15:27:59.737Z,0.52
2022-09-20T15:31:04.825Z,0.65
2022-09-20T15:34:09.636Z,0.50
2022-09-20T15:37:14.836Z,0.70
2022-09-20T15:40:19.831Z,0.50
2022-09-20T15:43:27.665Z,0.52
2022-09-20T15:46:33.198Z,0.68
2022-09-20T15:49:37.591Z,0.60
2022-09-20T15:52:44.200Z,0.70
2022-09-20T15:55:49.016Z,0.70
2022-09-20T15:58:59.690Z,0.60
2022-09-20T16:02:04.693Z,0.82
2022-09-20T16:05:11.244Z,0.50
2022-09-20T16:08:16.183Z,0.43
2022-09-20T16:11:23.230Z,0.82
2022-09-20T16:14:29.799Z,0.55
2022-09-20T16:17:51.179Z,0.85
2022-09-20T16:20:56.134Z,0.70
2022-09-20T16:24:01.393Z,0.70
2022-09-20T16:27:10.215Z,0.70
2022-09-20T16:30:20.625Z,0.70
2022-09-20T16:33:25.833Z,0.65
2022-09-20T16:36:30.719Z,0.70
2022-09-20T16:39:35.995Z,1.05
2022-09-20T16:42:42.702Z,0.70
2022-09-20T16:45:49.124Z,0.70
2022-09-20T16:48:55.130Z,1.08
2022-09-20T16:52:00.193Z,0.88
2022-09-20T16:55:05.560Z,0.70
2022-09-20T16:58:11.567Z,0.80
2022-09-20T17:01:20.898Z,0.80
2022-09-20T17:04:25.865Z,0.95
2022-09-20T17:07:30.890Z,0.98
2022-09-20T17:10:35.471Z,1.20
2022-09-20T17:13:41.905Z,1.55
2022-09-20T17:16:49.787Z,1.70
2022-09-20T17:19:55.338Z,1.50
2022-09-20T17:23:00.349Z,1.00
2022-09-20T17:26:07.332Z,1.20
2022-09-20T17:29:14.490Z,1.42
2022-09-20T17:32:21.142Z,1.30
2022-09-20T17:35:26.152Z,1.15
2022-09-20T17:38:32.204Z,2.03
2022-09-20T17:41:37.280Z,1.98
2022-09-20T17:44:42.130Z,1.48
2022-09-20T17:47:48.497Z,1.15
2022-09-20T17:50:59.617Z,1.52
2022-09-20T17:54:04.674Z,1.27
2022-09-20T17:57:09.650Z,1.30
2022-09-20T18:00:14.922Z,1.35
2022-09-20T18:03:22.835Z,1.25
2022-09-20T18:06:29.027Z,1.13
2022-09-20T18:09:34.099Z,1.02
2022-09-20T18:12:39.309Z,1.55
2022-09-20T18:15:46.187Z,1.08
2022-09-20T18:18:53.173Z,1.15
2022-09-20T18:21:58.091Z,1.35
2022-09-20T18:25:04.778Z,1.10
2022-09-20T18:28:09.992Z,1.13
2022-09-20T18:31:14.818Z,1.20
2022-09-20T18:34:22.918Z,1.25
2022-09-20T18:37:31.045Z,1.27
2022-09-20T18:40:37.233Z,1.50
2022-09-20T18:43:44.662Z,1.02
2022-09-20T18:46:52.859Z,1.10
2022-09-20T18:49:59.760Z,1.92
2022-09-20T18:53:07.677Z,1.20
2022-09-20T18:56:21.674Z,1.40
2022-09-20T18:59:29.049Z,1.10
2022-09-20T19:03:01.650Z,1.13
2022-09-20T19:06:13.241Z,1.10
2022-09-20T19:09:26.559Z,1.10
2022-09-20T19:12:36.851Z,1.08
2022-09-20T19:16:04.886Z,1.30
2022-09-20T19:19:48.109Z,1.48
2022-09-20T19:23:07.119Z,1.10
2022-09-20T19:26:21.002Z,1.52
2022-09-20T19:29:28.120Z,1.40
2022-09-20T19:32:34.888Z,1.23
2022-09-20T19:35:46.170Z,1.50
2022-09-20T19:39:04.217Z,1.30
2022-09-20T19:42:16.972Z,1.50
2022-09-20T19:45:33.096Z,1.52
2022-09-20T19:48:41.695Z,1.60
2022-09-20T19:51:46.966Z,1.77
2022-09-20T19:54:54.555Z,1.00
2022-09-20T19:57:59.865Z,1.30
2022-09-20T20:01:05.919Z,1.20
2022-09-20T20:04:11.600Z,1.30
2022-09-20T20:07:28.150Z,1.43
2022-09-20T20:10:44.401Z,1.50
2022-09-20T20:14:07.484Z,1.03
2022-09-20T20:17:25.616Z,1.20
2022-09-20T20:20:39.095Z,1.13
2022-09-20T20:23:58.340Z,1.37
2022-09-20T20:27:18.698Z,1.70
2022-09-20T20:30:23.389Z,1.13
2022-09-20T20:33:28.076Z,1.50
2022-09-20T20:36:33.509Z,1.20
2022-09-20T20:39:38.527Z,1.20
2022-09-20T20:42:44.896Z,1.60
2022-09-20T20:45:52.818Z,2.10
2022-09-20T20:48:58.940Z,1.40
2022-09-20T20:52:05.250Z,1.63
2022-09-20T20:55:11.126Z,1.60
2022-09-20T20:58:18.191Z,1.50
2022-09-20T21:01:24.686Z,2.30
2022-09-20T21:04:30.599Z,1.20
2022-09-20T21:07:35.170Z,1.33
2022-09-20T21:10:40.217Z,1.63
2022-09-20T21:13:48.965Z,1.60
2022-09-20T21:16:54.344Z,2.07
2022-09-20T21:20:01.164Z,2.40
2022-09-20T21:23:06.052Z,1.97
2022-09-20T21:26:13.031Z,2.10
2022-09-20T21:29:20.740Z,2.27
2022-09-20T21:32:25.556Z,2.10
2022-09-20T21:35:30.857Z,1.80
2022-09-20T21:38:36.826Z,1.97
2022-09-20T21:41:41.944Z,1.70
2022-09-20T21:44:48.430Z,1.70
2022-09-20T21:47:54.597Z,2.10
2022-09-20T21:51:06.874Z,2.00
2022-09-20T21:54:12.190Z,1.80
2022-09-20T21:57:17.272Z,1.70
2022-09-20T22:00:25.088Z,2.10
2022-09-20T22:03:35.681Z,1.77
2022-09-20T22:06:41.930Z,1.83
2022-09-20T22:09:46.865Z,1.93
2022-09-20T22:12:51.925Z,1.90
2022-09-20T22:16:05.929Z,2.40
2022-09-20T22:19:12.535Z,3.63
2022-09-20T22:22:17.457Z,3.03
2022-09-20T22:25:22.522Z,3.50
2022-09-20T22:28:27.412Z,3.30
2022-09-20T22:31:34.830Z,2.80
2022-09-20T22:34:39.517Z,2.67
2022-09-20T22:37:44.765Z,2.53
2022-09-20T22:40:59.942Z,2.77
2022-09-20T22:44:04.713Z,2.43
2022-09-20T22:47:10.986Z,2.20
2022-09-20T22:50:15.998Z,2.33
2022-09-20T22:53:20.887Z,2.57
2022-09-20T22:56:29.130Z,2.40
2022-09-20T22:59:33.968Z,2.37
2022-09-20T23:02:39.983Z,2.60
2022-09-20T23:05:46.081Z,2.20
2022-09-20T23:08:53.551Z,2.70
2022-09-20T23:11:58.660Z,2.37
2022-09-20T23:15:03.771Z,2.50
2022-09-20T23:18:10.273Z,2.40
2022-09-20T23:21:17.799Z,2.27
2022-09-20T23:24:24.205Z,2.07
2022-09-20T23:27:29.323Z,2.10
2022-09-20T23:30:34.592Z,2.30
2022-09-20T23:33:46.621Z,1.60
2022-09-20T23:36:53.395Z,1.77
2022-09-20T23:39:58.462Z,1.70
2022-09-20T23:43:03.273Z,2.27
2022-09-20T23:46:10.643Z,2.40
2022-09-20T23:49:17.342Z,2.50
2022-09-20T23:52:22.395Z,1.57
2022-09-20T23:55:27.066Z,1.83
2022-09-20T23:58:32.586Z,1.77
